createdAt,value
2018-07-26T00:02:05.148Z,5.78
2018-07-26T00:04:36.625Z,6.82
2018-07-26T00:07:11.593Z,6.75
2018-07-26T00:09:43.246Z,5.45
2018-07-26T00:12:14.749Z,6.57
2018-07-26T00:14:50.085Z,6.82
2018-07-26T00:17:20.592Z,6.18
2018-07-26T00:19:54.980Z,5.35
2018-07-26T00:22:27.849Z,7.17
2018-07-26T00:25:00.864Z,5.35
2018-07-26T00:27:35.279Z,5.70
2018-07-26T00:30:06.801Z,6.28
2018-07-26T00:32:41.327Z,6.50
2018-07-26T00:35:15.642Z,7.47
2018-07-26T00:37:47.069Z,7.28
2018-07-26T00:40:18.497Z,9.05
2018-07-26T00:42:51.659Z,5.85
2018-07-26T00:45:26.366Z,7.10
2018-07-26T00:47:58.080Z,6.18
2018-07-26T00:50:28.232Z,6.12
2018-07-26T00:52:58.120Z,9.15
2018-07-26T00:55:29.558Z,9.75
2018-07-26T00:58:00.929Z,6.30
2018-07-26T01:00:35.238Z,11.68
2018-07-26T01:03:07.184Z,15.23
2018-07-26T01:05:37.150Z,7.87
2018-07-26T01:08:10.041Z,18.95
2018-07-26T01:10:42.956Z,9.48
2018-07-26T01:13:15.829Z,6.95
2018-07-26T01:15:48.821Z,6.87
2018-07-26T01:18:21.736Z,7.68
2018-07-26T01:20:53.685Z,8.40
2018-07-26T01:23:24.550Z,6.68
2018-07-26T01:25:58.232Z,8.27
2018-07-26T01:28:31.864Z,9.63
2018-07-26T01:31:01.799Z,6.95
2018-07-26T01:33:32.720Z,9.13
2018-07-26T01:36:02.680Z,7.90
2018-07-26T01:38:37.114Z,8.75
2018-07-26T01:41:08.845Z,12.15
2018-07-26T01:44:16.218Z,10.05
2018-07-26T01:46:49.973Z,9.07
2018-07-26T01:49:21.801Z,9.48
2018-07-26T01:51:54.914Z,11.88
2018-07-26T01:54:24.877Z,11.90
2018-07-26T01:56:56.290Z,9.57
2018-07-26T01:59:27.858Z,9.15
2018-07-26T02:02:00.742Z,8.27
2018-07-26T02:04:29.945Z,11.15
2018-07-26T02:07:00.241Z,9.15
2018-07-26T02:09:30.226Z,10.45
2018-07-26T02:12:01.727Z,8.77
2018-07-26T02:14:38.224Z,12.23
2018-07-26T02:17:09.154Z,10.68
2018-07-26T02:19:40.511Z,11.80
2018-07-26T02:22:11.893Z,13.20
2018-07-26T02:24:44.970Z,10.68
2018-07-26T02:27:17.916Z,15.10
2018-07-26T02:29:49.458Z,8.65
2018-07-26T02:32:20.897Z,9.80
2018-07-26T02:34:52.955Z,9.57
2018-07-26T02:37:24.525Z,11.07
2018-07-26T02:39:56.009Z,10.10
2018-07-26T02:42:26.029Z,11.32
2018-07-26T02:45:00.302Z,9.65
2018-07-26T02:47:33.295Z,10.73
2018-07-26T02:50:07.734Z,9.80
2018-07-26T02:52:39.936Z,9.20
2018-07-26T02:55:12.778Z,9.73
2018-07-26T02:57:43.280Z,10.57
2018-07-26T03:00:17.659Z,10.82
2018-07-26T03:02:50.141Z,17.02
2018-07-26T03:05:27.172Z,11.35
2018-07-26T03:07:57.161Z,10.30
2018-07-26T03:10:28.601Z,15.23
2018-07-26T03:12:58.918Z,12.57
2018-07-26T03:15:30.427Z,10.18
2018-07-26T03:18:01.847Z,11.80
2018-07-26T03:20:31.454Z,11.27
2018-07-26T03:23:04.283Z,11.77
2018-07-26T03:25:35.711Z,14.38
2018-07-26T03:28:10.103Z,12.70
2018-07-26T03:30:43.282Z,12.30
2018-07-26T03:33:16.609Z,11.95
2018-07-26T03:35:49.689Z,12.10
2018-07-26T03:38:21.981Z,13.20
2018-07-26T03:40:54.905Z,11.73
2018-07-26T03:43:26.474Z,15.98
2018-07-26T03:45:57.975Z,11.95
2018-07-26T03:48:30.910Z,11.55
2018-07-26T03:51:02.849Z,13.98
2018-07-26T03:53:32.873Z,12.73
2018-07-26T03:56:05.614Z,12.75
2018-07-26T03:58:39.676Z,13.00
2018-07-26T04:01:13.949Z,13.40
2018-07-26T04:03:46.959Z,14.30
2018-07-26T04:06:20.039Z,12.55
2018-07-26T04:08:54.703Z,12.77
2018-07-26T04:11:26.178Z,18.05
2018-07-26T04:13:56.197Z,17.30
2018-07-26T04:16:29.040Z,16.50
2018-07-26T04:19:01.831Z,12.88
2018-07-26T04:21:33.359Z,16.23
2018-07-26T04:24:05.190Z,14.77
2018-07-26T04:26:37.029Z,14.90
2018-07-26T04:29:08.787Z,15.55
2018-07-26T04:31:42.147Z,14.35
2018-07-26T04:34:12.046Z,13.80
2018-07-26T04:36:41.937Z,12.50
2018-07-26T04:39:13.375Z,12.48
2018-07-26T04:41:46.325Z,16.08
2018-07-26T04:44:21.793Z,12.57
2018-07-26T04:46:54.740Z,14.63
2018-07-26T04:49:26.633Z,13.60
2018-07-26T04:52:01.173Z,13.75
2018-07-26T04:54:32.720Z,14.87
2018-07-26T04:57:04.024Z,12.70
2018-07-26T04:59:34.812Z,14.63
2018-07-26T05:02:07.851Z,15.68
2018-07-26T05:04:39.249Z,14.07
2018-07-26T05:07:13.753Z,18.30
2018-07-26T05:09:45.372Z,20.70
2018-07-26T05:12:18.431Z,20.27
2018-07-26T05:14:53.183Z,14.55
2018-07-26T05:17:26.203Z,16.45
2018-07-26T05:19:58.559Z,12.50
2018-07-26T05:22:28.609Z,12.40
2018-07-26T05:25:00.036Z,13.48
2018-07-26T05:27:32.875Z,13.07
2018-07-26T05:30:05.713Z,13.15
2018-07-26T05:32:37.189Z,12.77
2018-07-26T05:35:10.514Z,15.95
2018-07-26T05:37:43.392Z,14.02
2018-07-26T05:40:18.120Z,12.40
2018-07-26T05:42:49.571Z,12.30
2018-07-26T05:45:19.497Z,12.20
2018-07-26T05:47:50.954Z,13.23
2018-07-26T05:50:21.728Z,15.88
2018-07-26T05:52:51.762Z,12.95
2018-07-26T05:55:23.658Z,14.07
2018-07-26T05:57:56.892Z,14.18
2018-07-26T06:00:30.383Z,12.45
2018-07-26T06:03:02.100Z,13.18
2018-07-26T06:05:35.055Z,15.70
2018-07-26T06:08:06.542Z,15.48
2018-07-26T06:10:36.982Z,12.10
2018-07-26T06:13:09.036Z,14.50
2018-07-26T06:15:41.900Z,12.10
2018-07-26T06:18:14.249Z,14.57
2018-07-26T06:20:46.480Z,18.73
2018-07-26T06:23:16.975Z,12.88
2018-07-26T06:25:49.000Z,12.88
2018-07-26T06:28:21.273Z,12.10
2018-07-26T06:30:53.090Z,14.57
2018-07-26T06:33:26.072Z,13.15
2018-07-26T06:35:57.664Z,14.35
2018-07-26T06:38:27.604Z,12.25
2018-07-26T06:41:00.319Z,13.73
2018-07-26T06:43:30.221Z,12.98
2018-07-26T06:46:00.937Z,13.85
2018-07-26T06:48:32.924Z,12.60
2018-07-26T06:51:03.529Z,14.18
2018-07-26T06:53:36.409Z,10.95
2018-07-26T06:56:08.010Z,12.13
2018-07-26T06:58:39.398Z,14.15
2018-07-26T07:01:13.895Z,11.85
2018-07-26T07:03:43.791Z,14.82
2018-07-26T07:06:15.686Z,11.70
2018-07-26T07:08:48.617Z,11.50
2018-07-26T07:11:20.523Z,12.85
2018-07-26T07:13:52.512Z,14.75
2018-07-26T07:16:22.042Z,11.93
2018-07-26T07:18:54.018Z,11.15
2018-07-26T07:21:25.703Z,9.80
2018-07-26T07:23:59.958Z,15.52
2018-07-26T07:26:31.326Z,11.27
2018-07-26T07:29:02.716Z,10.88
2018-07-26T07:31:32.747Z,9.98
2018-07-26T07:34:04.290Z,9.55
2018-07-26T07:36:36.570Z,13.27
2018-07-26T07:39:11.890Z,10.68
2018-07-26T07:41:43.862Z,11.40
2018-07-26T07:44:13.750Z,11.20
2018-07-26T07:46:46.107Z,10.73
2018-07-26T07:49:15.938Z,10.55
2018-07-26T07:51:48.708Z,12.93
2018-07-26T07:54:18.535Z,14.50
2018-07-26T07:56:48.427Z,10.13
2018-07-26T07:59:20.491Z,11.15
2018-07-26T08:01:55.170Z,13.02
2018-07-26T08:04:28.988Z,9.90
2018-07-26T08:07:01.966Z,12.37
2018-07-26T08:09:34.884Z,10.65
2018-07-26T08:12:06.311Z,10.70
2018-07-26T08:14:40.731Z,10.80
2018-07-26T08:17:15.032Z,10.88
2018-07-26T08:19:44.924Z,12.02
2018-07-26T08:22:16.664Z,12.05
2018-07-26T08:24:50.925Z,12.50
2018-07-26T08:27:20.806Z,15.23
2018-07-26T08:29:53.785Z,10.30
2018-07-26T08:32:25.237Z,10.63
2018-07-26T08:34:58.061Z,12.05
2018-07-26T08:37:28.121Z,11.48
2018-07-26T08:39:58.039Z,13.07
2018-07-26T08:42:29.378Z,11.75
2018-07-26T08:44:59.322Z,10.88
2018-07-26T08:47:29.673Z,11.90
2018-07-26T08:50:00.272Z,10.48
2018-07-26T08:52:33.941Z,11.38
2018-07-26T08:55:06.177Z,10.63
2018-07-26T08:57:37.100Z,10.52
2018-07-26T09:00:09.558Z,11.73
2018-07-26T09:02:39.511Z,9.77
2018-07-26T09:05:10.863Z,10.50
2018-07-26T09:07:41.153Z,11.48
2018-07-26T09:10:12.564Z,10.35
2018-07-26T09:12:42.573Z,9.45
2018-07-26T09:15:15.454Z,10.05
2018-07-26T09:17:48.323Z,12.20
2018-07-26T09:20:18.719Z,8.82
2018-07-26T09:22:50.210Z,10.48
2018-07-26T09:25:21.378Z,10.93
2018-07-26T09:27:55.963Z,9.70
2018-07-26T09:30:29.072Z,9.10
2018-07-26T09:33:00.447Z,10.80
2018-07-26T09:35:33.530Z,8.23
2018-07-26T09:38:06.507Z,12.48
2018-07-26T09:40:38.008Z,10.30
2018-07-26T09:43:10.957Z,8.52
2018-07-26T09:45:42.483Z,8.30
2018-07-26T09:48:12.402Z,9.40
2018-07-26T09:50:44.144Z,6.75
2018-07-26T09:53:15.579Z,8.35
2018-07-26T09:55:45.567Z,8.35
2018-07-26T09:58:20.220Z,8.30
2018-07-26T10:01:09.150Z,8.13
2018-07-26T10:03:38.340Z,8.82
2018-07-26T10:06:12.888Z,8.60
2018-07-26T10:08:45.031Z,7.60
2018-07-26T10:11:15.623Z,8.25
2018-07-26T10:13:45.581Z,8.23
2018-07-26T10:16:17.581Z,10.15
2018-07-26T10:18:48.912Z,7.37
2018-07-26T10:21:20.366Z,8.40
2018-07-26T10:23:54.657Z,7.40
2018-07-26T10:26:25.560Z,9.45
2018-07-26T10:28:59.947Z,7.78
2018-07-26T10:31:32.064Z,6.65
2018-07-26T10:34:03.418Z,8.50
2018-07-26T10:36:34.825Z,6.80
2018-07-26T10:39:06.370Z,9.40
2018-07-26T10:41:39.192Z,10.43
2018-07-26T10:44:09.026Z,5.95
2018-07-26T10:46:42.253Z,7.57
2018-07-26T10:49:14.089Z,7.68
2018-07-26T10:51:47.895Z,5.68
2018-07-26T10:54:20.731Z,6.70
2018-07-26T10:56:52.107Z,6.32
2018-07-26T10:59:24.513Z,9.48
2018-07-26T11:01:55.927Z,5.18
2018-07-26T11:04:25.814Z,8.05
2018-07-26T11:06:57.648Z,9.77
2018-07-26T11:09:29.088Z,6.30
2018-07-26T11:11:59.488Z,6.07
2018-07-26T11:14:30.833Z,5.68
2018-07-26T11:17:00.772Z,5.97
2018-07-26T11:19:32.204Z,5.72
2018-07-26T11:22:01.845Z,6.97
2018-07-26T11:24:32.123Z,5.45
2018-07-26T11:27:03.970Z,5.18
2018-07-26T11:29:36.943Z,5.50
2018-07-26T11:32:08.228Z,6.15
2018-07-26T11:34:41.183Z,5.95
2018-07-26T11:37:11.229Z,8.45
2018-07-26T11:39:42.700Z,8.85
2018-07-26T11:42:14.645Z,6.25
2018-07-26T11:44:45.033Z,5.93
2018-07-26T11:47:14.880Z,6.12
2018-07-26T11:49:45.759Z,8.63
2018-07-26T11:52:19.095Z,6.12
2018-07-26T11:54:48.946Z,7.18
2018-07-26T11:57:20.280Z,7.75
2018-07-26T11:59:53.269Z,6.80
2018-07-26T12:02:26.167Z,6.18
2018-07-26T12:04:56.266Z,5.90
2018-07-26T12:07:25.529Z,6.62
2018-07-26T12:09:55.383Z,6.30
2018-07-26T12:12:28.872Z,6.53
2018-07-26T12:15:00.427Z,8.73
2018-07-26T12:17:32.299Z,6.78
2018-07-26T12:20:03.683Z,6.93
2018-07-26T12:22:35.114Z,6.20
2018-07-26T12:25:04.916Z,7.10
2018-07-26T12:27:38.256Z,5.78
2018-07-26T12:30:13.366Z,6.28
2018-07-26T12:32:45.214Z,6.60
2018-07-26T12:35:18.301Z,6.03
2018-07-26T12:37:51.084Z,7.35
2018-07-26T12:40:22.403Z,6.22
2018-07-26T12:42:52.331Z,5.90
2018-07-26T12:45:25.100Z,6.28
2018-07-26T12:47:57.945Z,5.93
2018-07-26T12:50:29.897Z,4.75
2018-07-26T12:53:00.389Z,6.00
2018-07-26T12:55:32.449Z,5.57
2018-07-26T12:58:05.093Z,4.57
2018-07-26T13:00:35.862Z,4.93
2018-07-26T13:03:07.557Z,7.37
2018-07-26T13:05:39.058Z,4.43
2018-07-26T13:08:08.899Z,4.75
2018-07-26T13:10:41.769Z,5.90
2018-07-26T13:13:13.115Z,4.22
2018-07-26T13:15:44.576Z,4.90
2018-07-26T13:18:17.880Z,4.47
2018-07-26T13:20:49.756Z,5.87
2018-07-26T13:23:21.115Z,4.68
2018-07-26T13:25:54.031Z,4.60
2018-07-26T13:28:25.388Z,5.40
2018-07-26T13:30:55.320Z,4.95
2018-07-26T13:33:26.775Z,5.15
2018-07-26T13:35:59.626Z,4.87
2018-07-26T13:38:30.979Z,5.03
2018-07-26T13:41:03.190Z,4.95
2018-07-26T13:43:33.000Z,7.03
2018-07-26T13:46:04.365Z,5.25
2018-07-26T13:48:34.567Z,5.07
2018-07-26T13:51:05.908Z,5.47
2018-07-26T13:53:39.614Z,5.82
2018-07-26T13:56:12.114Z,5.90
2018-07-26T13:58:41.978Z,5.57
2018-07-26T14:01:14.812Z,5.35
2018-07-26T14:03:47.020Z,7.10
2018-07-26T14:06:17.153Z,7.18
2018-07-26T14:08:51.514Z,6.85
2018-07-26T14:11:22.949Z,7.12
2018-07-26T14:13:55.712Z,6.35
2018-07-26T14:16:27.117Z,11.00
2018-07-26T14:18:58.197Z,6.62
2018-07-26T14:21:30.159Z,6.35
2018-07-26T14:24:05.537Z,6.05
2018-07-26T14:26:36.968Z,6.32
2018-07-26T14:29:09.781Z,6.65
2018-07-26T14:31:42.663Z,7.05
2018-07-26T14:34:16.055Z,6.72
2018-07-26T14:36:49.393Z,6.50
2018-07-26T14:39:22.201Z,5.93
2018-07-26T14:41:52.782Z,6.62
2018-07-26T14:44:25.556Z,6.47
2018-07-26T14:46:59.952Z,5.60
2018-07-26T14:49:31.650Z,6.30
2018-07-26T14:52:01.599Z,5.60
2018-07-26T14:54:31.482Z,6.55
2018-07-26T14:57:02.876Z,6.97
2018-07-26T14:59:37.593Z,6.18
2018-07-26T15:02:07.544Z,6.53
2018-07-26T15:04:37.304Z,7.43
2018-07-26T15:07:09.131Z,6.82
2018-07-26T15:09:42.395Z,5.93
2018-07-26T15:12:14.881Z,5.82
2018-07-26T15:14:44.773Z,6.28
2018-07-26T15:17:18.075Z,6.07
2018-07-26T15:19:49.484Z,6.57
2018-07-26T15:22:20.883Z,6.43
2018-07-26T15:24:55.526Z,6.72
2018-07-26T15:27:26.094Z,7.82
2018-07-26T15:29:57.394Z,5.32
2018-07-26T15:32:27.406Z,6.53
2018-07-26T15:34:57.810Z,5.57
2018-07-26T15:37:29.695Z,5.78
2018-07-26T15:40:01.655Z,5.62
2018-07-26T15:42:33.115Z,5.75
2018-07-26T15:45:05.928Z,5.37
2018-07-26T15:47:37.511Z,6.30
2018-07-26T15:50:07.440Z,5.20
2018-07-26T15:52:37.626Z,7.93
2018-07-26T15:55:09.025Z,5.60
2018-07-26T15:57:40.428Z,7.47
2018-07-26T16:00:13.728Z,5.72
2018-07-26T16:02:46.686Z,5.07
2018-07-26T16:05:18.713Z,5.37
2018-07-26T16:07:48.581Z,5.15
2018-07-26T16:10:19.123Z,4.90
2018-07-26T16:12:52.115Z,6.18
2018-07-26T16:15:23.982Z,5.22
2018-07-26T16:17:56.931Z,6.78
2018-07-26T16:20:28.188Z,5.50
2018-07-26T16:22:58.095Z,4.68
2018-07-26T16:25:27.913Z,5.07
2018-07-26T16:27:58.309Z,4.40
2018-07-26T16:30:31.252Z,4.72
2018-07-26T16:33:04.050Z,5.60
2018-07-26T16:35:35.400Z,7.62
2018-07-26T16:38:08.989Z,6.53
2018-07-26T16:40:40.340Z,7.68
2018-07-26T16:43:12.655Z,7.22
2018-07-26T16:45:44.073Z,5.75
2018-07-26T16:48:15.937Z,5.25
2018-07-26T16:50:48.893Z,6.78
2018-07-26T16:53:20.148Z,7.15
2018-07-26T16:55:53.497Z,5.30
2018-07-26T16:58:27.678Z,4.65
2018-07-26T17:01:00.461Z,4.82
2018-07-26T17:03:33.713Z,5.20
2018-07-26T17:06:05.048Z,4.93
2018-07-26T17:08:36.487Z,5.10
2018-07-26T17:11:07.628Z,5.10
2018-07-26T17:13:40.755Z,4.78
2018-07-26T17:16:12.095Z,4.28
2018-07-26T17:18:45.654Z,4.40
2018-07-26T17:21:19.915Z,4.93
2018-07-26T17:23:49.773Z,4.40
2018-07-26T17:26:19.782Z,4.10
2018-07-26T17:28:51.792Z,6.03
2018-07-26T17:31:24.163Z,5.20
2018-07-26T17:33:54.693Z,9.85
2018-07-26T17:36:26.063Z,11.63
2018-07-26T17:38:57.921Z,12.32
2018-07-26T17:41:30.087Z,9.27
2018-07-26T17:44:00.007Z,11.05
2018-07-26T17:46:29.858Z,10.13
2018-07-26T17:49:01.578Z,12.85
2018-07-26T17:51:34.657Z,14.75
2018-07-26T17:54:06.549Z,12.90
2018-07-26T17:56:38.133Z,11.23
2018-07-26T17:59:10.134Z,10.98
2018-07-26T18:01:42.081Z,11.32
2018-07-26T18:04:12.090Z,8.25
2018-07-26T18:06:42.082Z,9.77
2018-07-26T18:09:14.161Z,7.78
2018-07-26T18:11:47.177Z,8.15
2018-07-26T18:18:01.022Z,9.75
2018-07-26T18:20:48.830Z,10.35
2018-07-26T18:23:21.786Z,8.07
2018-07-26T18:26:06.334Z,9.35
2018-07-26T18:28:39.420Z,11.93
2018-07-26T18:31:09.309Z,10.68
2018-07-26T18:33:40.731Z,10.55
2018-07-26T18:36:12.823Z,8.38
2018-07-26T18:38:45.715Z,8.13
2018-07-26T18:41:17.123Z,9.10
2018-07-26T18:43:47.604Z,12.13
2018-07-26T18:46:19.730Z,8.98
2018-07-26T18:48:51.675Z,10.70
2018-07-26T18:51:22.135Z,11.52
2018-07-26T18:53:53.530Z,8.55
2018-07-26T18:56:25.064Z,9.02
2018-07-26T18:58:56.483Z,11.68
2018-07-26T19:01:30.845Z,10.88
2018-07-26T19:04:02.213Z,21.45
2018-07-26T19:06:33.604Z,7.70
2018-07-26T19:09:07.084Z,10.07
2018-07-26T19:11:38.407Z,8.38
2018-07-26T19:14:09.905Z,9.95
2018-07-26T19:16:41.354Z,11.68
2018-07-26T19:19:12.866Z,9.68
2018-07-26T19:21:46.367Z,7.20
2018-07-26T19:24:17.995Z,9.98
2018-07-26T19:26:49.619Z,12.43
2018-07-26T19:29:21.561Z,9.38
2018-07-26T19:31:52.904Z,11.57
2018-07-26T19:34:23.566Z,11.23
2018-07-26T19:36:56.510Z,9.05
2018-07-26T19:39:28.621Z,10.40
2018-07-26T19:42:03.120Z,7.30
2018-07-26T19:44:34.623Z,7.90
2018-07-26T19:47:06.055Z,7.45
2018-07-26T19:49:37.501Z,9.10
2018-07-26T19:52:09.715Z,9.38
2018-07-26T19:54:41.178Z,11.55
2018-07-26T19:57:12.251Z,14.02
2018-07-26T19:59:45.376Z,10.23
2018-07-26T20:02:16.886Z,14.48
2018-07-26T20:04:48.282Z,11.88
2018-07-26T20:07:21.288Z,9.68
2018-07-26T20:09:54.625Z,15.50
2018-07-26T20:12:25.042Z,12.88
2018-07-26T20:14:56.452Z,10.48
2018-07-26T20:17:29.502Z,8.93
2018-07-26T20:20:02.445Z,13.43
2018-07-26T20:22:36.817Z,9.60
2018-07-26T20:25:09.934Z,17.40
2018-07-26T20:27:41.414Z,13.82
2018-07-26T20:30:15.301Z,11.23
2018-07-26T20:32:49.593Z,10.38
2018-07-26T20:35:21.036Z,13.55
2018-07-26T20:37:54.532Z,14.82
2018-07-26T20:40:27.164Z,12.40
2018-07-26T20:42:59.126Z,9.52
2018-07-26T20:45:30.504Z,9.40
2018-07-26T20:48:05.159Z,9.40
2018-07-26T20:50:38.265Z,10.02
2018-07-26T20:53:09.784Z,11.48
2018-07-26T20:55:44.278Z,14.38
2018-07-26T20:58:15.761Z,13.40
2018-07-26T21:00:47.744Z,11.35
2018-07-26T21:03:18.240Z,13.27
2018-07-26T21:05:51.747Z,10.73
2018-07-26T21:08:20.879Z,10.43
2018-07-26T21:10:51.236Z,11.85
2018-07-26T21:13:24.073Z,10.27
2018-07-26T21:15:55.981Z,10.63
2018-07-26T21:18:30.840Z,13.52
2018-07-26T21:21:03.897Z,13.52
2018-07-26T21:23:35.568Z,11.48
2018-07-26T21:26:07.061Z,12.77
2018-07-26T21:28:40.066Z,14.20
2018-07-26T21:31:11.880Z,11.50
2018-07-26T21:33:41.679Z,13.27
2018-07-26T21:36:14.509Z,9.82
2018-07-26T21:38:48.183Z,13.35
2018-07-26T21:41:22.564Z,13.38
2018-07-26T21:43:54.070Z,13.30
2018-07-26T21:46:28.418Z,10.85
2018-07-26T21:49:01.421Z,11.80
2018-07-26T21:51:33.355Z,11.75
2018-07-26T21:54:04.764Z,12.07
2018-07-26T21:56:38.443Z,15.15
2018-07-26T21:59:09.980Z,17.55
2018-07-26T22:01:44.476Z,11.52
2018-07-26T22:04:18.915Z,12.02
2018-07-26T22:06:51.923Z,20.08
2018-07-26T22:09:23.312Z,14.75
2018-07-26T22:11:56.478Z,16.10
2018-07-26T22:14:29.335Z,13.13
2018-07-26T22:17:02.563Z,14.35
2018-07-26T22:19:35.986Z,11.00
2018-07-26T22:22:10.507Z,11.68
2018-07-26T22:24:43.281Z,12.75
2018-07-26T22:27:16.161Z,11.43
2018-07-26T22:29:49.685Z,13.00
2018-07-26T22:32:21.463Z,13.70
2018-07-26T22:34:54.711Z,13.38
2018-07-26T22:37:27.614Z,12.05
2018-07-26T22:40:02.098Z,12.25
2018-07-26T22:42:35.387Z,10.68
2018-07-26T22:45:07.517Z,9.45
2018-07-26T22:47:42.163Z,10.15
2018-07-26T22:50:16.848Z,7.55
2018-07-26T22:52:51.457Z,8.63
2018-07-26T22:55:25.930Z,11.18
2018-07-26T22:57:58.961Z,11.68
2018-07-26T23:00:32.269Z,8.52
2018-07-26T23:03:02.273Z,9.75
2018-07-26T23:05:35.931Z,12.77
2018-07-26T23:08:09.095Z,13.52
2018-07-26T23:10:43.568Z,12.63
2018-07-26T23:13:17.941Z,12.73
2018-07-26T23:15:49.546Z,12.85
2018-07-26T23:18:19.567Z,9.20
2018-07-26T23:20:49.553Z,11.50
2018-07-26T23:23:19.798Z,7.93
2018-07-26T23:25:49.633Z,7.85
2018-07-26T23:28:24.007Z,10.65
2018-07-26T23:30:55.421Z,10.13
2018-07-26T23:33:28.241Z,9.80
2018-07-26T23:36:01.093Z,9.60
2018-07-26T23:38:33.955Z,8.40
2018-07-26T23:41:08.528Z,11.30
2018-07-26T23:43:40.440Z,7.72
2018-07-26T23:46:13.379Z,11.85
2018-07-26T23:48:46.836Z,11.85
2018-07-26T23:51:18.281Z,8.02
2018-07-26T23:53:52.549Z,8.73
2018-07-26T23:56:23.629Z,9.80
2018-07-26T23:58:57.183Z,9.27
